Woodland, Wisconsin
Current Conditions -  °F | °C
As of 5:15 AM on Friday 28 Nov 2014 (Local Time) from KUNU Reporting Station
Overcast Overcast  
Wind Chill:   Ceiling: 3200
Heat Index: 12°   Visibility: 10mi
Dew Point:   Wind: 7mph
Humidity: 83%   Direction: 140°SE
Pressure: 30.26"   Gusts: NA
Location:  43.37°N, 88.52°W
Report Text: KUNU 281115Z AUTO 14006KT 10SM SCT028 BKN032 OVC045 M11/M13 A3026 RMK AO2 T11101133
Loading
Personal Weather Stations






























Interactive Weather Map New forecast layout! Learn more

10-Day Weather Forecast

Advertisements
Track Severe Weather on mobile